createdAt,value
2022-12-14T00:00:41.175Z,80.84
2022-12-14T00:03:16.960Z,81.13
2022-12-14T00:05:41.007Z,81.16
2022-12-14T00:08:05.241Z,81.00
2022-12-14T00:10:29.149Z,81.18
2022-12-14T00:12:52.775Z,81.32
2022-12-14T00:15:16.528Z,81.47
2022-12-14T00:17:40.135Z,81.66
2022-12-14T00:20:04.872Z,81.43
2022-12-14T00:22:28.523Z,81.29
2022-12-14T00:24:51.932Z,81.52
2022-12-14T00:27:15.471Z,81.42
2022-12-14T00:29:39.024Z,81.25
2022-12-14T00:32:02.527Z,81.33
2022-12-14T00:34:26.109Z,81.56
2022-12-14T00:36:49.629Z,81.69
2022-12-14T00:39:13.083Z,81.38
2022-12-14T00:41:36.582Z,81.55
2022-12-14T00:44:00.240Z,81.54
2022-12-14T00:46:24.216Z,81.61
2022-12-14T00:48:48.004Z,81.47
2022-12-14T00:51:14.078Z,81.36
2022-12-14T00:53:37.703Z,81.33
2022-12-14T00:56:06.954Z,81.16
2022-12-14T00:58:30.689Z,81.24
2022-12-14T01:01:01.366Z,81.33
2022-12-14T01:03:25.720Z,81.16
2022-12-14T01:05:49.633Z,81.27
2022-12-14T01:08:14.206Z,81.20
2022-12-14T01:10:40.076Z,81.26
2022-12-14T01:13:02.796Z,81.24
2022-12-14T01:15:26.262Z,81.01
2022-12-14T01:17:51.662Z,81.27
2022-12-14T01:20:15.117Z,81.48
2022-12-14T01:22:39.234Z,81.44
2022-12-14T01:25:03.450Z,81.57
2022-12-14T01:27:27.457Z,81.46
2022-12-14T01:29:50.959Z,81.57
2022-12-14T01:32:14.668Z,81.23
2022-12-14T01:34:38.224Z,81.55
2022-12-14T01:37:01.705Z,81.44
2022-12-14T01:39:25.166Z,81.63
2022-12-14T01:41:52.373Z,81.61
2022-12-14T01:44:54.175Z,81.99
2022-12-14T01:47:22.955Z,81.75
2022-12-14T01:49:51.717Z,81.85
2022-12-14T01:52:20.245Z,82.02
2022-12-14T01:54:49.126Z,82.13
2022-12-14T01:57:13.662Z,82.02
2022-12-14T01:59:41.200Z,82.09
2022-12-14T02:02:08.314Z,81.88
2022-12-14T02:04:33.517Z,81.72
2022-12-14T02:07:01.143Z,81.80
2022-12-14T02:09:28.108Z,81.51
2022-12-14T02:12:00.313Z,81.32
2022-12-14T02:14:24.410Z,81.56
2022-12-14T02:16:50.799Z,81.53
2022-12-14T02:19:14.252Z,81.54
2022-12-14T02:21:54.131Z,81.55
2022-12-14T02:24:49.835Z,81.60
2022-12-14T02:27:49.785Z,81.55
2022-12-14T02:30:17.513Z,81.78
2022-12-14T02:33:01.281Z,81.54
2022-12-14T02:35:37.261Z,81.49
2022-12-14T02:38:12.365Z,81.44
2022-12-14T02:40:42.171Z,81.61
2022-12-14T02:43:14.486Z,81.59
2022-12-14T02:45:42.080Z,81.83
2022-12-14T02:48:12.231Z,81.79
2022-12-14T02:50:43.351Z,81.50
2022-12-14T02:53:15.186Z,81.38
2022-12-14T02:55:44.211Z,81.10
2022-12-14T02:58:14.102Z,81.17
2022-12-14T03:00:38.220Z,81.13
2022-12-14T03:03:04.071Z,81.12
2022-12-14T03:05:26.678Z,81.20
2022-12-14T03:07:54.332Z,81.19
2022-12-14T03:10:27.134Z,81.21
2022-12-14T03:12:56.682Z,81.13
2022-12-14T03:15:24.129Z,80.89
2022-12-14T03:17:51.650Z,80.80
2022-12-14T03:20:20.419Z,80.77
2022-12-14T03:22:50.839Z,80.79
2022-12-14T03:25:18.155Z,80.55
2022-12-14T03:27:46.517Z,80.45
2022-12-14T03:30:14.996Z,80.23
2022-12-14T03:32:46.877Z,80.13
2022-12-14T03:35:15.293Z,80.25
2022-12-14T03:37:48.772Z,80.42
2022-12-14T03:40:17.391Z,80.46
2022-12-14T03:42:53.260Z,80.57
2022-12-14T03:45:21.437Z,80.72
2022-12-14T03:47:59.969Z,80.91
2022-12-14T03:50:28.522Z,80.81
2022-12-14T03:52:58.540Z,80.91
2022-12-14T03:55:29.839Z,81.02
2022-12-14T03:58:06.409Z,81.08
2022-12-14T04:00:36.854Z,81.04
2022-12-14T04:03:09.356Z,80.99
2022-12-14T04:05:45.488Z,80.84
2022-12-14T04:08:20.078Z,80.91
2022-12-14T04:11:07.315Z,80.93
2022-12-14T04:13:54.586Z,80.97
2022-12-14T04:16:42.836Z,81.07
2022-12-14T04:19:12.743Z,81.26
2022-12-14T04:21:41.358Z,81.17
2022-12-14T04:24:30.036Z,81.21
2022-12-14T04:26:58.969Z,81.10
2022-12-14T04:29:47.438Z,81.18
2022-12-14T04:32:17.014Z,81.06
2022-12-14T04:34:42.911Z,81.12
2022-12-14T04:37:12.166Z,81.19
2022-12-14T04:39:40.886Z,81.20
2022-12-14T04:42:08.125Z,81.13
2022-12-14T04:44:35.782Z,81.18
2022-12-14T04:47:00.798Z,81.21
2022-12-14T04:49:28.836Z,81.13
2022-12-14T04:52:04.819Z,81.07
2022-12-14T04:54:33.875Z,81.08
2022-12-14T04:57:05.611Z,81.17
2022-12-14T04:59:30.183Z,81.13
2022-12-14T05:02:04.257Z,81.10
2022-12-14T05:04:40.627Z,81.25
2022-12-14T05:07:17.403Z,81.42
2022-12-14T05:09:47.912Z,81.43
2022-12-14T05:12:17.136Z,81.51
2022-12-14T05:14:46.052Z,81.57
2022-12-14T05:17:10.594Z,81.75
2022-12-14T05:19:34.533Z,81.77
2022-12-14T05:22:01.351Z,81.60
2022-12-14T05:24:24.808Z,81.67
2022-12-14T05:26:48.273Z,81.55
2022-12-14T05:29:11.986Z,81.40
2022-12-14T05:31:35.747Z,81.30
2022-12-14T05:33:59.158Z,81.34
2022-12-14T05:36:22.965Z,81.19
2022-12-14T05:38:46.895Z,81.21
2022-12-14T05:41:10.596Z,81.07
2022-12-14T05:43:34.459Z,81.08
2022-12-14T05:45:59.970Z,81.03
2022-12-14T05:48:23.444Z,80.84
2022-12-14T05:50:47.044Z,80.67
2022-12-14T05:53:10.523Z,80.61
2022-12-14T05:55:33.928Z,80.48
2022-12-14T05:57:57.492Z,80.59
2022-12-14T06:00:21.679Z,80.66
2022-12-14T06:02:45.218Z,80.56
2022-12-14T06:05:09.890Z,80.58
2022-12-14T06:07:33.411Z,80.57
2022-12-14T06:09:56.909Z,80.47
2022-12-14T06:12:20.500Z,80.48
2022-12-14T06:14:43.898Z,80.31
2022-12-14T06:17:07.474Z,80.34
2022-12-14T06:19:31.097Z,80.29
2022-12-14T06:21:54.719Z,80.27
2022-12-14T06:24:18.364Z,80.29
2022-12-14T06:26:42.555Z,80.17
2022-12-14T06:29:06.471Z,80.27
2022-12-14T06:31:31.840Z,80.19
2022-12-14T06:33:58.537Z,80.19
2022-12-14T06:36:23.956Z,80.41
2022-12-14T06:38:47.675Z,80.37
2022-12-14T06:41:11.498Z,80.50
2022-12-14T06:43:35.012Z,80.51
2022-12-14T06:45:58.484Z,80.58
2022-12-14T06:48:22.145Z,80.70
2022-12-14T06:50:45.581Z,80.64
2022-12-14T06:53:12.559Z,80.68
2022-12-14T06:55:36.210Z,80.68
2022-12-14T06:57:59.872Z,80.68
2022-12-14T07:00:24.203Z,80.71
2022-12-14T07:02:48.187Z,80.83
2022-12-14T07:05:12.168Z,80.80
2022-12-14T07:07:36.563Z,80.70
2022-12-14T07:10:00.571Z,80.84
2022-12-14T07:12:23.993Z,80.90
2022-12-14T07:14:47.457Z,80.90
2022-12-14T07:17:10.979Z,80.94
2022-12-14T07:19:34.723Z,80.76
2022-12-14T07:22:03.295Z,80.68
2022-12-14T07:24:27.024Z,80.47
2022-12-14T07:26:50.768Z,80.31
2022-12-14T07:29:16.183Z,80.28
2022-12-14T07:31:39.736Z,79.88
2022-12-14T07:34:03.283Z,79.59
2022-12-14T07:36:28.620Z,79.42
2022-12-14T07:38:54.932Z,79.12
2022-12-14T07:41:22.946Z,78.77
2022-12-14T07:43:49.963Z,78.66
2022-12-14T07:46:16.456Z,78.47
2022-12-14T07:48:43.747Z,78.50
2022-12-14T07:51:09.718Z,78.20
2022-12-14T07:53:33.994Z,78.10
2022-12-14T07:56:01.928Z,77.37
2022-12-14T07:58:25.359Z,77.10
2022-12-14T08:00:48.835Z,76.78
2022-12-14T08:03:12.559Z,76.50
2022-12-14T08:05:39.412Z,76.27
2022-12-14T08:08:03.452Z,76.18
2022-12-14T08:10:27.109Z,75.42
2022-12-14T08:12:51.115Z,75.10
2022-12-14T08:15:15.079Z,74.86
2022-12-14T08:17:38.511Z,74.44
2022-12-14T08:20:02.329Z,74.05
2022-12-14T08:22:25.799Z,73.73
2022-12-14T08:24:49.805Z,73.42
2022-12-14T08:27:13.266Z,74.18
2022-12-14T08:29:36.736Z,73.75
2022-12-14T08:32:00.209Z,72.80
2022-12-14T08:34:23.861Z,72.94
2022-12-14T08:36:47.474Z,72.64
2022-12-14T08:39:12.745Z,72.29
2022-12-14T08:41:36.507Z,71.84
2022-12-14T08:44:02.497Z,71.70
2022-12-14T08:46:26.089Z,71.89
2022-12-14T08:48:52.457Z,71.75
2022-12-14T08:51:17.102Z,71.92
2022-12-14T08:53:40.798Z,71.65
2022-12-14T08:56:07.548Z,71.05
2022-12-14T08:58:31.340Z,70.27
2022-12-14T09:01:02.515Z,69.27
2022-12-14T09:03:26.228Z,69.21
2022-12-14T09:05:56.770Z,67.91
2022-12-14T09:08:23.729Z,68.44
2022-12-14T09:10:50.468Z,68.15
2022-12-14T09:13:18.205Z,68.18
2022-12-14T09:15:42.340Z,68.81
2022-12-14T09:18:05.936Z,69.21
2022-12-14T09:20:29.580Z,69.43
2022-12-14T09:22:53.168Z,69.92
2022-12-14T09:25:16.937Z,70.02
2022-12-14T09:27:40.576Z,69.69
2022-12-14T09:30:05.285Z,69.43
2022-12-14T09:32:29.774Z,69.00
2022-12-14T09:34:53.465Z,68.78
2022-12-14T09:37:16.998Z,68.19
2022-12-14T09:39:40.486Z,68.02
2022-12-14T09:42:19.146Z,68.28
2022-12-14T09:44:56.332Z,68.30
2022-12-14T09:47:25.095Z,67.67
2022-12-14T09:49:52.979Z,67.78
2022-12-14T09:52:21.003Z,68.00
2022-12-14T09:54:46.974Z,67.81
2022-12-14T09:57:20.789Z,68.18
2022-12-14T09:59:44.298Z,68.40
2022-12-14T10:02:33.827Z,67.65
2022-12-14T10:05:13.888Z,67.00
2022-12-14T10:07:42.849Z,66.53
2022-12-14T10:10:16.709Z,65.96
2022-12-14T10:12:51.827Z,65.47
2022-12-14T10:15:24.567Z,64.57
2022-12-14T10:18:27.492Z,64.75
2022-12-14T10:21:01.782Z,64.66
2022-12-14T10:23:26.859Z,65.08
2022-12-14T10:25:54.684Z,65.93
2022-12-14T10:28:23.754Z,65.91
2022-12-14T10:30:50.196Z,65.68
2022-12-14T10:33:22.203Z,65.38
2022-12-14T10:35:51.271Z,65.55
2022-12-14T10:38:23.658Z,64.88
2022-12-14T10:40:51.460Z,64.25
2022-12-14T10:43:30.444Z,63.89
2022-12-14T10:46:01.587Z,64.14
2022-12-14T10:48:36.706Z,64.23
2022-12-14T10:51:03.322Z,64.64
2022-12-14T10:53:38.712Z,65.02
2022-12-14T10:56:10.551Z,65.72
2022-12-14T10:58:34.050Z,64.69
2022-12-14T11:00:57.582Z,65.02
2022-12-14T11:03:21.582Z,64.00
2022-12-14T11:05:55.994Z,64.66
2022-12-14T11:08:41.860Z,64.20
2022-12-14T11:11:15.483Z,64.08
2022-12-14T11:13:48.996Z,65.28
2022-12-14T11:16:30.301Z,65.46
2022-12-14T11:19:00.989Z,64.97
2022-12-14T11:21:30.254Z,65.02
2022-12-14T11:23:55.156Z,65.08
2022-12-14T11:26:26.575Z,64.97
2022-12-14T11:28:52.715Z,65.14
2022-12-14T11:31:23.987Z,65.15
2022-12-14T11:33:50.825Z,64.70
2022-12-14T11:36:26.131Z,65.08
2022-12-14T11:38:56.693Z,65.75
2022-12-14T11:41:21.868Z,65.31
2022-12-14T11:43:45.391Z,65.39
2022-12-14T11:46:09.166Z,66.17
2022-12-14T11:48:37.722Z,66.60
2022-12-14T11:51:11.344Z,66.63
2022-12-14T11:53:35.412Z,66.78
2022-12-14T11:56:01.811Z,67.00
2022-12-14T11:58:28.722Z,66.88
2022-12-14T12:00:58.213Z,67.01
2022-12-14T12:03:27.407Z,67.36
2022-12-14T12:05:52.507Z,67.31
2022-12-14T12:08:24.728Z,67.75
2022-12-14T12:10:50.803Z,67.73
2022-12-14T12:13:21.332Z,67.69
2022-12-14T12:15:50.733Z,67.82
2022-12-14T12:18:20.195Z,67.60
2022-12-14T12:20:50.982Z,67.44
2022-12-14T12:23:19.653Z,67.37
2022-12-14T12:25:46.999Z,67.39
2022-12-14T12:28:17.686Z,68.13
2022-12-14T12:30:45.620Z,68.16
2022-12-14T12:33:26.732Z,68.60
2022-12-14T12:35:53.639Z,69.01
2022-12-14T12:38:27.168Z,69.35
2022-12-14T12:40:59.147Z,69.51
2022-12-14T12:43:30.028Z,69.54
2022-12-14T12:45:57.636Z,69.89
2022-12-14T12:48:26.793Z,70.01
2022-12-14T12:50:54.495Z,70.03
2022-12-14T12:53:25.879Z,70.16
2022-12-14T12:55:53.063Z,70.08
2022-12-14T12:58:22.419Z,70.78
2022-12-14T13:00:50.934Z,70.80
2022-12-14T13:03:22.391Z,70.80
2022-12-14T13:05:48.632Z,70.90
2022-12-14T13:08:22.300Z,70.94
2022-12-14T13:11:17.257Z,71.29
2022-12-14T13:13:34.024Z,71.45
2022-12-14T13:16:05.404Z,71.35
2022-12-14T13:18:57.638Z,71.54
2022-12-14T13:21:27.149Z,71.91
2022-12-14T13:23:50.595Z,72.28
2022-12-14T13:26:57.863Z,72.25
2022-12-14T13:29:29.321Z,72.75
2022-12-14T13:32:00.852Z,72.95
2022-12-14T13:34:39.014Z,73.19
2022-12-14T13:37:37.629Z,73.10
2022-12-14T13:40:39.154Z,73.45
2022-12-14T13:43:15.781Z,73.72
2022-12-14T13:45:42.334Z,73.60
2022-12-14T13:48:14.947Z,73.57
2022-12-14T13:50:52.944Z,73.84
2022-12-14T13:53:27.160Z,74.00
2022-12-14T13:55:55.111Z,74.18
2022-12-14T13:58:21.729Z,74.17
2022-12-14T14:00:55.829Z,74.29
2022-12-14T14:03:53.426Z,74.34
2022-12-14T14:06:36.242Z,74.73
2022-12-14T14:09:19.975Z,75.06
2022-12-14T14:11:56.606Z,75.05
2022-12-14T14:14:34.853Z,75.68
2022-12-14T14:17:03.245Z,75.70
2022-12-14T14:19:34.706Z,75.88
2022-12-14T14:22:24.586Z,75.85
2022-12-14T14:25:00.846Z,75.96
2022-12-14T14:27:27.290Z,75.97
2022-12-14T14:29:52.128Z,76.12
2022-12-14T14:32:38.302Z,76.41
2022-12-14T14:35:05.128Z,76.46
2022-12-14T14:37:37.660Z,76.16
2022-12-14T14:40:20.334Z,76.35
2022-12-14T14:42:51.896Z,76.62
2022-12-14T14:45:37.085Z,76.84
2022-12-14T14:48:27.938Z,76.71
2022-12-14T14:51:04.063Z,76.74
2022-12-14T14:53:30.823Z,76.94
2022-12-14T14:56:32.294Z,77.04
2022-12-14T14:59:40.169Z,76.74
2022-12-14T15:02:17.790Z,76.84
2022-12-14T15:04:47.486Z,76.79
2022-12-14T15:07:18.017Z,77.12
2022-12-14T15:09:44.116Z,77.34
2022-12-14T15:12:22.313Z,77.09
2022-12-14T15:14:52.780Z,77.52
2022-12-14T15:17:22.449Z,77.07
2022-12-14T15:19:49.124Z,77.39
2022-12-14T15:22:15.773Z,77.35
2022-12-14T15:24:41.698Z,77.52
2022-12-14T15:27:19.842Z,77.38
2022-12-14T15:29:45.090Z,77.62
2022-12-14T15:32:17.346Z,77.68
2022-12-14T15:34:55.559Z,77.88
2022-12-14T15:37:29.884Z,78.01
2022-12-14T15:40:02.300Z,78.17
2022-12-14T15:42:26.495Z,78.25
2022-12-14T15:44:51.773Z,78.13
2022-12-14T15:47:27.310Z,78.12
2022-12-14T15:49:56.008Z,78.18
2022-12-14T15:52:29.316Z,78.35
2022-12-14T15:54:53.335Z,78.54
2022-12-14T15:57:19.173Z,78.47
2022-12-14T15:59:42.953Z,78.67
2022-12-14T16:02:21.453Z,78.45
2022-12-14T16:04:45.885Z,78.60
2022-12-14T16:07:17.355Z,78.73
2022-12-14T16:09:43.867Z,78.58
2022-12-14T16:12:20.721Z,78.51
2022-12-14T16:14:48.321Z,78.41
2022-12-14T16:17:13.190Z,78.48
2022-12-14T16:19:58.227Z,78.46
2022-12-14T16:22:24.186Z,78.53
2022-12-14T16:25:18.604Z,78.41
2022-12-14T16:27:44.021Z,78.61
2022-12-14T16:30:18.284Z,78.69
2022-12-14T16:32:42.178Z,78.51
2022-12-14T16:35:06.496Z,78.44
2022-12-14T16:37:33.468Z,78.40
2022-12-14T16:39:57.756Z,78.50
2022-12-14T16:42:23.117Z,78.39
2022-12-14T16:44:48.038Z,78.22
2022-12-14T16:47:43.975Z,78.06
2022-12-14T16:53:20.876Z,78.00
2022-12-14T16:56:05.617Z,78.43
2022-12-14T16:58:29.491Z,78.18
2022-12-14T17:00:59.448Z,78.38
2022-12-14T17:03:23.925Z,78.33
2022-12-14T17:05:53.954Z,78.20
2022-12-14T17:08:18.253Z,78.16
2022-12-14T17:10:41.938Z,78.23
2022-12-14T17:13:05.560Z,78.30
2022-12-14T17:15:32.991Z,78.11
2022-12-14T17:18:01.322Z,78.00
2022-12-14T17:20:27.532Z,78.00
2022-12-14T17:22:51.955Z,77.99
2022-12-14T17:25:15.792Z,78.05
2022-12-14T17:28:06.603Z,77.90
2022-12-14T17:30:30.886Z,77.69
2022-12-14T17:32:55.462Z,77.87
2022-12-14T17:35:21.556Z,77.88
2022-12-14T17:37:45.340Z,77.87
2022-12-14T17:40:10.864Z,77.88
2022-12-14T17:42:36.161Z,77.71
2022-12-14T17:45:00.480Z,77.58
2022-12-14T17:47:24.457Z,77.70
2022-12-14T17:49:48.088Z,77.62
2022-12-14T17:52:19.658Z,77.73
2022-12-14T17:54:43.274Z,77.23
2022-12-14T17:57:14.488Z,77.44
2022-12-14T17:59:39.888Z,77.46
2022-12-14T18:02:18.612Z,77.36
2022-12-14T18:04:42.505Z,77.38
2022-12-14T18:07:06.366Z,77.53
2022-12-14T18:09:29.948Z,77.20
2022-12-14T18:12:22.598Z,77.36
2022-12-14T18:14:44.509Z,77.31
2022-12-14T18:17:11.599Z,77.27
2022-12-14T18:19:36.372Z,77.14
2022-12-14T18:21:59.924Z,77.43
2022-12-14T18:24:26.087Z,77.41
2022-12-14T18:26:49.883Z,77.46
2022-12-14T18:29:13.582Z,77.44
2022-12-14T18:31:38.320Z,77.47
2022-12-14T18:34:02.142Z,77.35
2022-12-14T18:36:27.211Z,77.27
2022-12-14T18:38:51.642Z,77.30
2022-12-14T18:41:16.935Z,77.30
2022-12-14T18:43:43.895Z,77.20
2022-12-14T18:46:08.125Z,77.19
2022-12-14T18:48:31.662Z,77.53
2022-12-14T18:50:55.617Z,77.34
2022-12-14T18:53:20.958Z,77.37
2022-12-14T18:55:44.677Z,77.40
2022-12-14T18:58:13.874Z,77.57
2022-12-14T19:00:38.911Z,77.60
2022-12-14T19:03:04.236Z,77.53
2022-12-14T19:05:28.694Z,77.28
2022-12-14T19:07:52.477Z,77.35
2022-12-14T19:10:18.356Z,77.54
2022-12-14T19:12:42.197Z,77.15
2022-12-14T19:15:10.781Z,77.45
2022-12-14T19:17:34.348Z,77.35
2022-12-14T19:19:58.022Z,77.46
2022-12-14T19:22:30.436Z,77.66
2022-12-14T19:24:53.985Z,77.53
2022-12-14T19:27:30.310Z,77.73
2022-12-14T19:30:01.786Z,77.58
2022-12-14T19:32:25.715Z,77.34
2022-12-14T19:34:49.397Z,77.37
2022-12-14T19:37:13.147Z,77.49
2022-12-14T19:39:36.908Z,77.41
2022-12-14T19:42:00.529Z,77.70
2022-12-14T19:44:24.497Z,77.67
2022-12-14T19:46:48.509Z,77.60
2022-12-14T19:49:14.082Z,77.85
2022-12-14T19:51:37.037Z,77.70
2022-12-14T19:54:00.783Z,77.53
2022-12-14T19:56:23.420Z,77.64
2022-12-14T19:58:47.205Z,77.73
2022-12-14T20:01:11.148Z,78.04
2022-12-14T20:03:34.372Z,78.06
2022-12-14T20:06:06.090Z,78.42
2022-12-14T20:08:32.922Z,78.68
2022-12-14T20:10:56.262Z,79.15
2022-12-14T20:13:22.637Z,79.11
2022-12-14T20:16:10.280Z,79.30
2022-12-14T20:18:33.132Z,79.54
2022-12-14T20:21:01.545Z,79.81
2022-12-14T20:23:24.250Z,79.81
2022-12-14T20:25:47.169Z,79.71
2022-12-14T20:28:09.888Z,80.03
2022-12-14T20:30:33.581Z,80.42
2022-12-14T20:32:56.711Z,80.00
2022-12-14T20:35:19.384Z,80.32
2022-12-14T20:37:42.275Z,80.26
2022-12-14T20:40:05.977Z,80.31
2022-12-14T20:42:28.767Z,80.57
2022-12-14T20:44:51.897Z,80.61
2022-12-14T20:47:14.635Z,80.88
2022-12-14T20:49:38.215Z,80.90
2022-12-14T20:52:00.892Z,81.22
2022-12-14T20:54:24.881Z,81.34
2022-12-14T20:56:49.293Z,81.62
2022-12-14T20:59:12.917Z,81.66
2022-12-14T21:01:36.023Z,81.52
2022-12-14T21:04:00.514Z,81.84
2022-12-14T21:06:23.571Z,81.92
2022-12-14T21:09:08.095Z,82.00
2022-12-14T21:11:49.413Z,81.77
2022-12-14T21:14:12.433Z,81.95
2022-12-14T21:16:35.475Z,82.12
2022-12-14T21:18:58.075Z,82.17
2022-12-14T21:21:21.583Z,82.24
2022-12-14T21:23:44.629Z,82.46
2022-12-14T21:26:07.197Z,82.65
2022-12-14T21:28:32.212Z,82.97
2022-12-14T21:31:01.100Z,83.20
2022-12-14T21:33:23.829Z,83.37
2022-12-14T21:35:46.613Z,83.35
2022-12-14T21:38:09.224Z,83.45
2022-12-14T21:40:50.575Z,83.41
2022-12-14T21:43:14.373Z,83.36
2022-12-14T21:45:37.097Z,83.52
2022-12-14T21:47:59.682Z,83.62
2022-12-14T21:50:22.328Z,83.59
2022-12-14T21:52:45.147Z,83.31
2022-12-14T21:55:08.069Z,83.21
2022-12-14T21:57:54.451Z,83.27
2022-12-14T22:00:17.807Z,83.05
2022-12-14T22:02:41.847Z,82.93
2022-12-14T22:05:06.040Z,82.81
2022-12-14T22:07:30.578Z,82.55
2022-12-14T22:09:53.370Z,82.45
2022-12-14T22:12:16.299Z,82.83
2022-12-14T22:14:38.982Z,82.41
2022-12-14T22:17:01.719Z,82.81
2022-12-14T22:19:24.952Z,82.31
2022-12-14T22:21:47.959Z,82.44
2022-12-14T22:24:11.327Z,82.66
2022-12-14T22:26:34.489Z,82.55
2022-12-14T22:28:57.548Z,82.50
2022-12-14T22:31:20.459Z,82.86
2022-12-14T22:33:43.099Z,82.39
2022-12-14T22:36:05.967Z,82.74
2022-12-14T22:38:32.751Z,82.66
2022-12-14T22:41:00.387Z,82.39
2022-12-14T22:43:28.043Z,82.29
2022-12-14T22:45:52.826Z,82.24
2022-12-14T22:48:16.116Z,82.10
2022-12-14T22:50:38.683Z,82.42
2022-12-14T22:53:01.280Z,82.72
2022-12-14T22:55:23.985Z,82.31
2022-12-14T22:57:47.589Z,82.62
2022-12-14T23:00:13.672Z,82.96
2022-12-14T23:02:36.424Z,82.87
2022-12-14T23:04:59.439Z,82.91
2022-12-14T23:07:22.237Z,83.14
2022-12-14T23:10:03.050Z,82.66
2022-12-14T23:12:44.420Z,82.67
2022-12-14T23:15:25.387Z,82.86
2022-12-14T23:18:06.421Z,82.68
2022-12-14T23:20:47.645Z,82.74
2022-12-14T23:23:29.638Z,82.61
2022-12-14T23:26:10.850Z,82.89
2022-12-14T23:28:52.083Z,83.29
2022-12-14T23:31:33.285Z,82.89
2022-12-14T23:34:14.380Z,82.70
2022-12-14T23:36:54.960Z,83.08
2022-12-14T23:39:36.366Z,82.73
2022-12-14T23:42:17.439Z,83.10
2022-12-14T23:44:58.608Z,83.04
2022-12-14T23:47:39.505Z,83.02
2022-12-14T23:50:20.386Z,83.07
2022-12-14T23:53:01.204Z,82.88
2022-12-14T23:55:42.437Z,82.91
2022-12-14T23:58:23.219Z,82.79
